createdAt,value
2018-10-07T00:01:55.820Z,54.12
2018-10-07T00:04:24.468Z,54.65
2018-10-07T00:06:53.056Z,54.52
2018-10-07T00:09:21.678Z,53.91
2018-10-07T00:11:50.354Z,53.96
2018-10-07T00:14:18.931Z,54.36
2018-10-07T00:16:47.521Z,53.96
2018-10-07T00:19:41.559Z,54.00
2018-10-07T00:25:00.131Z,54.36
2018-10-07T00:27:36.046Z,54.31
2018-10-07T00:30:09.749Z,53.59
2018-10-07T00:32:41.671Z,53.64
2018-10-07T00:35:14.939Z,53.88
2018-10-07T00:37:48.950Z,53.83
2018-10-07T00:40:24.358Z,52.98
2018-10-07T00:42:58.251Z,52.89
2018-10-07T00:45:31.860Z,53.49
2018-10-07T00:48:01.228Z,52.75
2018-10-07T00:50:32.632Z,53.62
2018-10-07T00:53:06.039Z,53.06
2018-10-07T00:55:38.549Z,52.88
2018-10-07T00:58:12.534Z,52.96
2018-10-07T01:00:46.775Z,53.32
2018-10-07T01:03:21.212Z,53.20
2018-10-07T01:05:54.231Z,52.71
2018-10-07T01:08:30.296Z,52.93
2018-10-07T01:11:03.603Z,53.23
2018-10-07T01:16:49.019Z,53.52
2018-10-07T01:22:50.472Z,52.86
2018-10-07T01:25:33.010Z,53.06
2018-10-07T01:28:07.424Z,53.39
2018-10-07T01:30:52.433Z,53.74
2018-10-07T01:33:23.891Z,53.20
2018-10-07T01:35:56.620Z,53.65
2018-10-07T01:38:29.041Z,53.56
2018-10-07T01:41:01.202Z,53.75
2018-10-07T01:43:48.774Z,54.24
2018-10-07T01:46:30.253Z,53.06
2018-10-07T01:49:08.721Z,53.16
2018-10-07T01:51:39.764Z,53.72
2018-10-07T01:54:13.098Z,53.85
2018-10-07T01:56:44.752Z,53.29
2018-10-07T01:59:16.535Z,53.87
2018-10-07T02:01:48.654Z,52.65
2018-10-07T02:04:20.831Z,53.64
2018-10-07T02:06:55.067Z,53.34
2018-10-07T02:09:44.824Z,52.99
2018-10-07T05:23:26.946Z,59.54
2018-10-07T05:25:55.491Z,60.07
2018-10-07T05:28:27.565Z,59.90
2018-10-07T05:30:56.058Z,60.22
2018-10-07T05:33:24.675Z,60.47
2018-10-07T05:35:53.243Z,60.17
2018-10-07T05:38:22.515Z,59.76
2018-10-07T05:40:51.193Z,60.29
2018-10-07T05:43:19.793Z,60.60
2018-10-07T05:45:48.455Z,60.17
2018-10-07T05:48:17.080Z,59.73
2018-10-07T05:50:45.690Z,59.83
2018-10-07T05:53:14.192Z,59.20
2018-10-07T05:55:42.884Z,58.35
2018-10-07T05:58:11.632Z,58.10
2018-10-07T06:00:40.185Z,57.95
2018-10-07T06:05:21.745Z,58.20
2018-10-07T06:07:50.580Z,59.39
2018-10-07T06:10:19.098Z,59.12
2018-10-07T06:12:47.694Z,59.49
2018-10-07T06:15:26.143Z,58.73
2018-10-07T06:17:54.654Z,58.52
2018-10-07T06:20:23.131Z,58.46
2018-10-07T06:22:51.620Z,58.22
2018-10-07T06:25:20.187Z,57.94
2018-10-07T06:27:48.761Z,57.44
2018-10-07T06:30:17.348Z,57.82
2018-10-07T06:32:45.853Z,57.26
2018-10-07T06:35:14.512Z,57.09
2018-10-07T06:37:43.145Z,57.52
2018-10-07T06:40:12.002Z,56.30
2018-10-07T06:42:40.540Z,56.37
2018-10-07T06:45:09.159Z,56.62
2018-10-07T06:47:37.721Z,56.44
2018-10-07T06:50:06.388Z,56.09
2018-10-07T06:52:34.925Z,55.91
2018-10-07T06:55:03.466Z,56.64
2018-10-07T06:57:32.081Z,55.95
2018-10-07T07:00:01.024Z,55.70
2018-10-07T07:02:29.544Z,54.84
2018-10-07T07:04:58.063Z,55.21
2018-10-07T07:07:26.907Z,55.01
2018-10-07T07:09:55.582Z,55.52
2018-10-07T07:12:24.133Z,55.04
2018-10-07T07:14:52.577Z,55.23
2018-10-07T07:17:21.014Z,54.85
2018-10-07T07:19:49.613Z,54.78
2018-10-07T07:22:18.076Z,55.38
2018-10-07T07:24:46.683Z,55.42
2018-10-07T07:27:15.116Z,55.05
2018-10-07T07:29:43.662Z,55.15
2018-10-07T07:32:12.103Z,55.23
2018-10-07T07:34:40.573Z,54.44
2018-10-07T07:37:09.039Z,54.54
2018-10-07T07:39:37.526Z,53.74
2018-10-07T07:42:06.012Z,53.24
2018-10-07T07:44:34.515Z,52.87
2018-10-07T07:47:02.974Z,52.71
2018-10-07T07:49:31.465Z,52.87
2018-10-07T07:52:00.221Z,52.21
2018-10-07T07:54:29.049Z,52.59
2018-10-07T07:56:57.750Z,52.13
2018-10-07T07:59:26.303Z,51.86
2018-10-07T08:01:54.845Z,51.36
2018-10-07T08:04:23.298Z,52.07
2018-10-07T08:06:51.969Z,51.03
2018-10-07T08:09:20.539Z,51.24
2018-10-07T08:11:49.246Z,50.95
2018-10-07T08:14:18.083Z,50.86
2018-10-07T08:16:46.650Z,50.64
2018-10-07T08:19:15.166Z,50.23
2018-10-07T08:21:43.697Z,50.24
2018-10-07T08:24:12.264Z,50.01
2018-10-07T08:26:40.789Z,48.88
2018-10-07T08:29:09.331Z,49.14
2018-10-07T08:31:37.862Z,49.26
2018-10-07T08:34:06.366Z,48.19
2018-10-07T08:36:34.873Z,48.40
2018-10-07T08:39:03.586Z,48.13
2018-10-07T08:41:32.096Z,48.13
2018-10-07T08:44:00.596Z,47.49
2018-10-07T08:46:29.282Z,48.29
2018-10-07T08:48:57.770Z,47.45
2018-10-07T08:51:26.334Z,46.54
2018-10-07T08:53:54.890Z,45.25
2018-10-07T08:56:23.854Z,44.63
2018-10-07T08:58:52.314Z,44.09
2018-10-07T09:01:20.904Z,43.26
2018-10-07T09:03:55.983Z,43.21
2018-10-07T09:06:24.434Z,43.08
2018-10-07T09:08:53.171Z,42.02
2018-10-07T09:11:21.848Z,41.47
2018-10-07T09:13:50.548Z,40.91
2018-10-07T09:16:19.502Z,41.33
2018-10-07T09:18:48.105Z,40.67
2018-10-07T09:21:16.776Z,39.89
2018-10-07T09:23:45.456Z,40.02
2018-10-07T09:26:13.985Z,39.78
2018-10-07T09:28:42.526Z,39.65
2018-10-07T09:31:11.016Z,40.29
2018-10-07T09:33:39.539Z,38.15
2018-10-07T09:36:08.443Z,35.79
2018-10-07T09:38:36.924Z,33.79
2018-10-07T09:41:05.366Z,32.69
2018-10-07T09:43:34.663Z,30.04
2018-10-07T09:46:03.495Z,27.90
2018-10-07T09:48:33.046Z,26.87
2018-10-07T09:51:01.676Z,25.28
2018-10-07T09:53:30.358Z,23.02
2018-10-07T09:55:59.200Z,21.68
2018-10-07T09:58:27.891Z,20.78
2018-10-07T10:00:59.927Z,21.51
2018-10-07T10:03:28.854Z,20.87
2018-10-07T10:05:57.805Z,20.89
2018-10-07T10:08:26.975Z,20.92
2018-10-07T10:10:55.980Z,19.67
2018-10-07T10:13:30.317Z,18.52
2018-10-07T10:15:58.875Z,18.33
2018-10-07T10:18:32.775Z,17.92
2018-10-07T10:21:10.790Z,18.28
2018-10-07T10:23:52.543Z,19.16
2018-10-07T10:26:30.678Z,19.62
2018-10-07T10:38:15.682Z,17.48
2018-10-07T10:41:57.258Z,16.24
2018-10-07T10:44:34.670Z,15.94
2018-10-07T10:47:11.977Z,15.76
2018-10-07T10:49:48.978Z,14.79
2018-10-07T10:52:32.247Z,14.18
2018-10-07T10:55:07.343Z,13.98
2018-10-07T10:57:42.150Z,13.85
2018-10-07T11:00:43.942Z,14.41
2018-10-07T11:03:19.664Z,13.45
2018-10-07T11:07:57.274Z,12.98
2018-10-07T11:10:36.134Z,12.95
2018-10-07T11:13:56.197Z,12.72
2018-10-07T11:16:29.813Z,13.10
2018-10-07T11:19:10.650Z,12.59
2018-10-07T11:23:06.737Z,11.92
2018-10-07T11:25:48.039Z,11.60
2018-10-07T11:28:28.752Z,11.38
2018-10-07T11:31:06.081Z,11.38
2018-10-07T11:35:52.152Z,11.23
2018-10-07T11:38:46.723Z,11.63
2018-10-07T11:42:26.609Z,10.77
2018-10-07T11:45:08.013Z,10.50
2018-10-07T11:49:50.812Z,10.81
2018-10-07T11:52:30.730Z,9.92
2018-10-07T11:54:59.817Z,9.69
2018-10-07T11:57:28.872Z,9.67
2018-10-07T11:59:58.091Z,10.71
2018-10-07T12:02:26.642Z,11.92
2018-10-07T12:04:55.143Z,12.61
2018-10-07T12:07:24.276Z,13.26
2018-10-07T12:09:53.112Z,14.20
2018-10-07T12:12:21.622Z,14.89
2018-10-07T12:14:50.193Z,16.01
2018-10-07T12:17:18.741Z,17.85
2018-10-07T12:19:47.312Z,19.21
2018-10-07T12:22:15.830Z,20.03
2018-10-07T12:24:44.370Z,21.33
2018-10-07T12:27:13.039Z,21.97
2018-10-07T12:29:41.652Z,22.26
2018-10-07T12:32:10.598Z,22.94
2018-10-07T12:34:39.047Z,24.67
2018-10-07T12:37:07.733Z,24.23
2018-10-07T12:39:36.591Z,25.51
2018-10-07T12:42:05.206Z,26.03
2018-10-07T12:44:33.721Z,26.31
2018-10-07T12:47:02.252Z,27.25
2018-10-07T12:49:30.728Z,28.00
2018-10-07T12:51:59.310Z,27.47
2018-10-07T12:54:27.925Z,27.97
2018-10-07T12:56:56.376Z,28.38
2018-10-07T12:59:24.882Z,27.90
2018-10-07T13:01:53.327Z,28.38
2018-10-07T13:04:21.817Z,28.39
2018-10-07T13:06:50.360Z,28.99
2018-10-07T13:09:18.879Z,28.59
2018-10-07T13:11:47.380Z,29.25
2018-10-07T13:14:15.962Z,28.95
2018-10-07T13:16:44.438Z,29.68
2018-10-07T13:19:12.942Z,29.79
2018-10-07T13:21:41.405Z,29.96
2018-10-07T13:24:09.942Z,30.17
2018-10-07T13:26:38.484Z,29.15
2018-10-07T13:29:06.947Z,30.50
2018-10-07T13:31:35.473Z,29.55
2018-10-07T13:34:03.933Z,29.93
2018-10-07T13:36:32.411Z,30.06
2018-10-07T13:39:00.989Z,29.41
2018-10-07T13:41:29.442Z,29.89
2018-10-07T13:43:57.941Z,30.21
2018-10-07T13:46:26.520Z,30.18
2018-10-07T13:48:55.124Z,30.13
2018-10-07T13:51:23.569Z,30.42
2018-10-07T13:53:52.111Z,30.90
2018-10-07T13:56:20.619Z,30.84
2018-10-07T13:58:49.119Z,30.90
2018-10-07T14:01:17.598Z,30.53
2018-10-07T14:03:46.180Z,30.43
2018-10-07T14:06:14.629Z,30.13
2018-10-07T14:08:43.167Z,30.21
2018-10-07T14:11:11.617Z,30.69
2018-10-07T14:13:40.312Z,30.83
2018-10-07T14:16:08.917Z,30.68
2018-10-07T14:18:37.601Z,30.61
2018-10-07T14:21:06.298Z,30.79
2018-10-07T14:23:34.987Z,30.27
2018-10-07T14:26:03.710Z,29.90
2018-10-07T14:28:32.465Z,30.06
2018-10-07T14:31:02.076Z,30.70
2018-10-07T14:33:30.681Z,29.94
2018-10-07T14:35:59.182Z,30.86
2018-10-07T14:38:27.916Z,30.48
2018-10-07T14:40:56.582Z,31.07
2018-10-07T14:43:25.235Z,31.13
2018-10-07T14:45:53.888Z,30.49
2018-10-07T14:48:22.431Z,31.11
2018-10-07T14:50:50.977Z,30.74
2018-10-07T14:53:19.577Z,30.54
2018-10-07T14:58:37.278Z,30.54
2018-10-07T15:01:05.963Z,30.55
2018-10-07T15:03:34.505Z,30.77
2018-10-07T15:06:03.113Z,31.43
2018-10-07T15:08:31.766Z,31.46
2018-10-07T15:11:00.511Z,31.24
2018-10-07T15:13:29.211Z,31.56
2018-10-07T15:15:57.891Z,32.37
2018-10-07T15:18:26.459Z,32.14
2018-10-07T15:20:55.120Z,32.42
2018-10-07T15:23:23.780Z,31.93
2018-10-07T15:25:52.575Z,32.10
2018-10-07T15:28:21.230Z,32.28
2018-10-07T15:30:49.913Z,31.89
2018-10-07T15:33:18.568Z,32.21
2018-10-07T15:35:47.198Z,32.44
2018-10-07T15:38:15.729Z,31.88
2018-10-07T15:40:44.322Z,32.12
2018-10-07T15:43:12.983Z,31.95
2018-10-07T15:45:41.600Z,31.81
2018-10-07T15:48:10.141Z,32.06
2018-10-07T15:50:38.619Z,32.64
2018-10-07T15:53:07.218Z,32.14
2018-10-07T15:55:35.783Z,32.39
2018-10-07T15:58:04.234Z,32.52
2018-10-07T16:00:32.818Z,32.98
2018-10-07T16:03:01.604Z,33.14
2018-10-07T16:05:31.200Z,33.67
2018-10-07T16:08:00.484Z,33.90
2018-10-07T16:10:29.537Z,33.75
2018-10-07T16:12:59.351Z,34.16
2018-10-07T16:15:28.173Z,33.64
2018-10-07T16:17:57.358Z,34.21
2018-10-07T16:20:26.133Z,33.95
2018-10-07T16:22:54.968Z,34.53
2018-10-07T16:25:23.552Z,34.51
2018-10-07T16:27:52.701Z,34.10
2018-10-07T16:30:21.394Z,34.49
2018-10-07T16:32:49.937Z,35.25
2018-10-07T16:35:18.588Z,34.80
2018-10-07T16:37:47.193Z,34.74
2018-10-07T16:40:15.707Z,35.21
2018-10-07T16:42:44.273Z,35.59
2018-10-07T16:45:12.892Z,35.94
2018-10-07T16:47:41.438Z,35.95
2018-10-07T16:50:10.007Z,35.54
2018-10-07T16:52:38.681Z,35.70
2018-10-07T16:55:10.101Z,36.56
2018-10-07T16:57:38.926Z,35.80
2018-10-07T17:00:08.392Z,36.91
2018-10-07T17:02:37.055Z,36.61
2018-10-07T17:05:05.710Z,37.19
2018-10-07T17:07:36.186Z,36.50
2018-10-07T17:10:05.485Z,36.99
2018-10-07T17:12:34.355Z,37.30
2018-10-07T17:15:04.394Z,36.90
2018-10-07T17:17:33.287Z,37.04
2018-10-07T17:20:02.048Z,38.03
2018-10-07T17:22:30.898Z,37.40
2018-10-07T17:24:59.858Z,37.79
2018-10-07T17:27:29.066Z,38.35
2018-10-07T17:29:58.020Z,37.87
2018-10-07T17:32:26.697Z,38.68
2018-10-07T17:34:55.571Z,38.62
2018-10-07T17:37:24.423Z,38.81
2018-10-07T17:39:53.270Z,38.87
2018-10-07T17:42:22.128Z,39.19
2018-10-07T17:44:51.046Z,39.18
2018-10-07T17:47:20.200Z,39.41
2018-10-07T17:49:49.208Z,39.23
2018-10-07T17:52:18.359Z,39.24
2018-10-07T17:54:47.318Z,39.65
2018-10-07T17:57:15.913Z,39.50
2018-10-07T17:59:44.723Z,39.96
2018-10-07T18:02:13.361Z,40.31
2018-10-07T18:04:41.967Z,40.40
2018-10-07T18:07:10.537Z,40.19
2018-10-07T18:09:39.200Z,40.70
2018-10-07T18:12:07.797Z,41.22
2018-10-07T18:14:36.337Z,41.28
2018-10-07T18:17:05.134Z,41.07
2018-10-07T18:19:33.837Z,40.76
2018-10-07T18:22:02.406Z,41.20
2018-10-07T18:24:30.991Z,40.90
2018-10-07T18:26:59.643Z,41.50
2018-10-07T18:29:28.226Z,41.55
2018-10-07T18:31:56.883Z,41.49
2018-10-07T18:34:25.430Z,41.46
2018-10-07T18:36:54.072Z,41.68
2018-10-07T18:39:22.792Z,42.93
2018-10-07T18:41:51.372Z,42.61
2018-10-07T18:44:20.306Z,42.98
2018-10-07T18:46:48.948Z,42.92
2018-10-07T18:49:18.337Z,43.45
2018-10-07T18:51:47.301Z,42.76
2018-10-07T18:54:15.906Z,42.54
2018-10-07T18:56:44.553Z,42.95
2018-10-07T18:59:13.103Z,43.11
2018-10-07T19:01:41.718Z,42.94
2018-10-07T19:04:10.321Z,43.51
2018-10-07T19:06:38.854Z,43.13
2018-10-07T19:09:09.524Z,43.28
2018-10-07T19:11:38.504Z,43.83
2018-10-07T19:14:07.214Z,44.53
2018-10-07T19:16:35.915Z,43.49
2018-10-07T19:19:04.484Z,44.23
2018-10-07T19:21:33.210Z,43.88
2018-10-07T19:24:02.068Z,43.67
2018-10-07T19:26:30.763Z,44.31
2018-10-07T19:28:59.456Z,44.29
2018-10-07T19:31:28.153Z,43.81
2018-10-07T19:33:56.875Z,44.51
2018-10-07T19:36:25.663Z,44.74
2018-10-07T19:38:54.390Z,44.83
2018-10-07T19:41:23.465Z,44.18
2018-10-07T19:43:52.355Z,44.64
2018-10-07T19:46:21.065Z,44.54
2018-10-07T19:48:49.867Z,44.74
2018-10-07T19:51:20.353Z,44.79
2018-10-07T19:53:53.694Z,44.54
2018-10-07T19:56:27.486Z,45.41
2018-10-07T19:58:56.440Z,45.02
2018-10-07T20:01:25.928Z,45.41
2018-10-07T20:03:58.311Z,45.73
2018-10-07T20:06:28.304Z,45.71
2018-10-07T20:08:57.831Z,45.43
2018-10-07T20:11:27.950Z,45.42
2018-10-07T20:13:56.755Z,45.78
2018-10-07T20:16:25.625Z,45.76
2018-10-07T20:22:56.628Z,46.45
2018-10-07T20:25:26.309Z,46.04
2018-10-07T20:27:55.049Z,46.28
2018-10-07T20:30:24.996Z,46.25
2018-10-07T20:32:54.050Z,46.91
2018-10-07T20:35:22.860Z,46.67
2018-10-07T20:37:51.767Z,46.48
2018-10-07T20:40:21.684Z,46.74
2018-10-07T20:42:50.593Z,47.42
2018-10-07T20:45:19.431Z,47.21
2018-10-07T20:47:48.000Z,47.04
2018-10-07T20:50:16.641Z,47.04
2018-10-07T20:52:45.259Z,47.76
2018-10-07T20:55:13.867Z,47.07
2018-10-07T20:57:42.434Z,47.52
2018-10-07T21:00:11.004Z,47.62
2018-10-07T21:02:39.582Z,47.77
2018-10-07T21:05:08.219Z,47.70
2018-10-07T21:07:36.890Z,47.53
2018-10-07T21:10:05.523Z,47.79
2018-10-07T21:12:34.219Z,47.66
2018-10-07T21:15:02.783Z,48.55
2018-10-07T21:17:31.401Z,47.90
2018-10-07T21:19:59.978Z,47.93
2018-10-07T21:22:28.646Z,48.62
2018-10-07T21:24:57.195Z,48.70
2018-10-07T21:27:25.804Z,48.13
2018-10-07T21:29:54.411Z,48.65
2018-10-07T21:32:22.843Z,48.81
2018-10-07T21:34:51.484Z,48.75
2018-10-07T21:37:20.118Z,48.80
2018-10-07T21:39:48.585Z,48.42
2018-10-07T21:42:17.142Z,48.74
2018-10-07T21:44:45.776Z,49.33
2018-10-07T21:47:14.509Z,48.97
2018-10-07T21:49:43.325Z,49.19
2018-10-07T21:52:11.938Z,49.25
2018-10-07T21:54:40.566Z,49.38
2018-10-07T21:57:09.107Z,49.21
2018-10-07T21:59:37.781Z,49.66
2018-10-07T22:02:06.294Z,49.41
2018-10-07T22:04:34.980Z,50.08
2018-10-07T22:07:03.503Z,49.84
2018-10-07T22:09:32.066Z,49.70
2018-10-07T22:12:00.543Z,50.18
2018-10-07T22:14:29.152Z,49.97
2018-10-07T22:16:57.701Z,50.02
2018-10-07T22:19:26.237Z,50.07
2018-10-07T22:21:54.892Z,49.90
2018-10-07T22:24:23.488Z,49.84
2018-10-07T22:26:52.158Z,49.92
2018-10-07T22:29:20.760Z,50.20
2018-10-07T22:31:49.385Z,50.33
2018-10-07T22:34:18.087Z,50.54
2018-10-07T22:36:46.722Z,50.16
2018-10-07T22:39:15.342Z,50.32
2018-10-07T22:41:43.933Z,50.69
2018-10-07T22:44:12.555Z,50.30
2018-10-07T22:46:41.167Z,50.37
2018-10-07T22:49:09.784Z,50.74
2018-10-07T22:51:38.358Z,50.47
2018-10-07T22:54:07.000Z,50.60
2018-10-07T22:56:35.698Z,50.42
2018-10-07T22:59:04.254Z,50.85
2018-10-07T23:01:32.852Z,50.93
2018-10-07T23:04:01.443Z,50.74
2018-10-07T23:06:30.081Z,51.11
2018-10-07T23:08:58.702Z,50.64
2018-10-07T23:11:27.368Z,51.33
2018-10-07T23:13:56.107Z,51.36
2018-10-07T23:16:24.695Z,51.47
2018-10-07T23:18:53.335Z,51.24
2018-10-07T23:21:21.853Z,51.44
2018-10-07T23:23:50.429Z,51.56
2018-10-07T23:26:19.015Z,51.44
2018-10-07T23:28:47.543Z,51.28
2018-10-07T23:31:16.046Z,51.50
2018-10-07T23:33:44.622Z,51.27
2018-10-07T23:36:13.081Z,51.99
2018-10-07T23:38:41.589Z,52.00
2018-10-07T23:41:10.147Z,52.01
2018-10-07T23:43:38.742Z,52.10
2018-10-07T23:46:07.454Z,51.63
2018-10-07T23:48:35.984Z,52.09
2018-10-07T23:51:04.503Z,52.11
2018-10-07T23:53:33.071Z,52.35
2018-10-07T23:56:01.583Z,52.57
2018-10-07T23:58:30.140Z,52.76
